Time;durP1;ratioP1;P1;durP2;ratioP2;P2;SDS_P1;SDS_P2;PMS_P1;PMS_P2;Temp;Humidity;BMP_temperature;BMP_pressure;BME280_temperature;BME280_humidity;BME280_pressure;Samples;Min_cycle;Max_cycle;Signal;HPM_P1;HPM_P2
2023/11/27 00:00:43;;;;;;;2.53;1.67;;;-0.30;99.90;;;;;;2076880;28;20236;-69
2023/11/27 00:01:44;;;;;;;1.83;1.40;;;-0.20;99.90;;;;;;2083871;28;20311;-70
2023/11/27 00:02:44;;;;;;;2.43;1.53;;;-0.20;99.90;;;;;;2084033;28;20745;-70
2023/11/27 00:03:45;;;;;;;3.37;1.17;;;-0.10;99.90;;;;;;2078684;28;20946;-70
2023/11/27 00:04:46;;;;;;;3.20;1.60;;;-0.10;99.90;;;;;;2080284;28;20318;-70
2023/11/27 00:05:46;;;;;;;3.47;1.47;;;-0.10;99.90;;;;;;2089504;28;20235;-69
2023/11/27 00:06:47;;;;;;;1.80;1.30;;;0.00;99.90;;;;;;2091950;28;20672;-69
2023/11/27 00:07:48;;;;;;;1.40;1.30;;;0.00;99.90;;;;;;2089055;28;20223;-70
2023/11/27 00:08:48;;;;;;;2.63;1.30;;;0.10;99.90;;;;;;2089050;28;20677;-70
2023/11/27 00:09:49;;;;;;;2.60;1.43;;;0.20;99.90;;;;;;2089989;28;20278;-70
2023/11/27 00:10:50;;;;;;;2.33;1.37;;;0.20;99.90;;;;;;2084806;28;20260;-69
2023/11/27 00:11:50;;;;;;;1.57;1.23;;;0.20;99.90;;;;;;2086378;28;20208;-70
2023/11/27 00:12:51;;;;;;;3.33;1.30;;;0.10;99.90;;;;;;2082939;28;20235;-70
2023/11/27 00:13:52;;;;;;;2.03;1.35;;;0.20;99.90;;;;;;2081064;28;20288;-71
2023/11/27 00:14:53;;;;;;;1.30;1.17;;;0.30;99.90;;;;;;2093119;28;20191;-70
2023/11/27 00:15:53;;;;;;;1.17;0.93;;;0.30;99.90;;;;;;2092970;28;20184;-71
2023/11/27 00:16:54;;;;;;;1.87;1.30;;;0.20;99.90;;;;;;2079680;28;20192;-70
2023/11/27 00:17:55;;;;;;;1.90;1.13;;;0.10;99.90;;;;;;2087623;28;20196;-70
2023/11/27 00:18:56;;;;;;;1.30;1.03;;;0.10;99.90;;;;;;2076573;28;20608;-70
2023/11/27 00:19:56;;;;;;;2.33;1.63;;;0.20;99.90;;;;;;2086021;28;20194;-69
2023/11/27 00:20:57;;;;;;;1.67;1.37;;;0.20;99.90;;;;;;2071945;28;20683;-70
2023/11/27 00:21:58;;;;;;;1.40;1.10;;;0.30;99.90;;;;;;2071418;28;20220;-70
2023/11/27 00:22:58;;;;;;;1.63;1.30;;;0.30;99.90;;;;;;2079844;28;20195;-69
2023/11/27 00:23:59;;;;;;;1.70;1.33;;;0.40;99.90;;;;;;2084025;28;20220;-69
2023/11/27 00:25:00;;;;;;;1.10;1.00;;;0.40;99.90;;;;;;2095048;28;20231;-69
2023/11/27 00:26:01;;;;;;;1.80;1.20;;;0.40;99.90;;;;;;2094515;28;20195;-69
2023/11/27 00:27:02;;;;;;;1.70;1.30;;;0.50;99.90;;;;;;2093246;28;20183;-69
2023/11/27 00:28:03;;;;;;;1.77;1.33;;;0.50;99.90;;;;;;2093175;28;20196;-69
2023/11/27 00:29:03;;;;;;;2.93;1.10;;;0.50;99.90;;;;;;2091530;28;20213;-70
2023/11/27 00:30:07;;;;;;;2.00;1.13;;;0.40;99.90;;;;;;2087267;28;20233;-70
2023/11/27 00:31:09;;;;;;;1.50;1.05;;;0.50;99.90;;;;;;2096788;28;20792;-69
2023/11/27 00:32:09;;;;;;;1.70;1.10;;;0.50;99.90;;;;;;2080067;28;20197;-70
2023/11/27 00:33:10;;;;;;;1.07;0.97;;;0.60;99.90;;;;;;2072432;28;20660;-70
2023/11/27 00:34:11;;;;;;;1.73;1.07;;;0.60;99.90;;;;;;2093420;28;20255;-70
2023/11/27 00:35:12;;;;;;;3.53;1.70;;;0.60;99.90;;;;;;2085516;28;20248;-70
2023/11/27 00:36:13;;;;;;;1.13;0.87;;;0.60;99.90;;;;;;2085338;28;20650;-69
2023/11/27 00:37:15;;;;;;;2.40;1.05;;;0.60;99.90;;;;;;2069199;28;20293;-70
2023/11/27 00:38:16;;;;;;;2.28;1.02;;;0.70;99.90;;;;;;2072462;28;20243;-69
2023/11/27 00:39:17;;;;;;;1.60;1.10;;;0.70;99.90;;;;;;2088568;28;20603;-69
2023/11/27 00:40:17;;;;;;;1.33;1.17;;;0.70;99.90;;;;;;2087612;28;20227;-70
2023/11/27 00:41:18;;;;;;;1.87;1.30;;;0.70;99.90;;;;;;2084962;28;20287;-69
2023/11/27 00:42:20;;;;;;;1.95;1.40;;;0.70;99.90;;;;;;2084878;28;20664;-69
2023/11/27 00:43:21;;;;;;;2.40;1.60;;;0.70;99.90;;;;;;2080562;28;20706;-70
2023/11/27 00:44:21;;;;;;;2.23;1.53;;;0.60;99.90;;;;;;2071951;28;20264;-70
2023/11/27 00:45:22;;;;;;;2.27;1.53;;;0.60;99.90;;;;;;2082253;28;20228;-69
2023/11/27 00:46:23;;;;;;;2.33;1.40;;;0.60;99.90;;;;;;2088507;28;20284;-69
2023/11/27 00:47:23;;;;;;;2.23;1.57;;;0.60;99.90;;;;;;2095872;28;20273;-69
2023/11/27 00:48:24;;;;;;;2.53;1.47;;;0.70;99.90;;;;;;2093109;28;20320;-70
2023/11/27 00:49:25;;;;;;;2.50;1.80;;;0.60;99.90;;;;;;2078449;28;20233;-69
2023/11/27 00:50:26;;;;;;;2.30;1.60;;;0.50;99.90;;;;;;2086496;28;20247;-69
2023/11/27 00:51:27;;;;;;;2.55;1.80;;;0.50;99.90;;;;;;2088324;28;20239;-69
2023/11/27 00:52:28;;;;;;;2.90;2.13;;;0.40;99.90;;;;;;2083151;28;20307;-69
2023/11/27 00:53:29;;;;;;;2.60;1.93;;;0.30;99.90;;;;;;2079861;28;20317;-69
2023/11/27 00:54:29;;;;;;;2.37;1.63;;;0.40;99.90;;;;;;2082286;28;20260;-70
2023/11/27 00:55:30;;;;;;;2.97;2.10;;;0.40;99.90;;;;;;2084664;28;21020;-69
2023/11/27 00:56:31;;;;;;;2.53;2.00;;;0.40;99.90;;;;;;2090585;28;20282;-69
2023/11/27 00:57:31;;;;;;;3.53;2.03;;;0.40;99.90;;;;;;2084276;28;20232;-69
2023/11/27 00:58:32;;;;;;;3.73;1.90;;;0.30;99.90;;;;;;2088582;28;20239;-70
2023/11/27 00:59:38;;;;;;;4.23;2.40;;;0.30;99.90;;;;;;2081589;28;20244;-69
2023/11/27 01:00:39;;;;;;;2.75;1.98;;;0.20;99.90;;;;;;2084516;28;20478;-69
2023/11/27 01:01:40;;;;;;;3.22;1.77;;;0.20;99.90;;;;;;2092832;28;20236;-72
2023/11/27 01:02:41;;;;;;;2.00;1.57;;;0.10;99.90;;;;;;2088207;28;20239;-69
2023/11/27 01:03:42;;;;;;;4.13;2.33;;;0.10;99.90;;;;;;2090419;28;20227;-69
2023/11/27 01:04:42;;;;;;;2.27;1.90;;;0.10;99.90;;;;;;2086938;28;21229;-69
2023/11/27 01:05:43;;;;;;;4.10;2.00;;;0.00;99.90;;;;;;2087273;28;20286;-69
2023/11/27 01:06:44;;;;;;;2.70;1.83;;;0.10;99.90;;;;;;2093404;28;20231;-69
2023/11/27 01:07:44;;;;;;;4.47;2.20;;;0.00;99.90;;;;;;2093461;28;20768;-69
2023/11/27 01:08:45;;;;;;;4.27;2.03;;;0.00;99.90;;;;;;2085077;28;20236;-69
2023/11/27 01:09:46;;;;;;;2.50;2.10;;;0.00;99.90;;;;;;2079939;28;20887;-69
2023/11/27 01:10:46;;;;;;;2.50;2.00;;;0.00;99.90;;;;;;2087895;28;20657;-70
2023/11/27 01:11:47;;;;;;;2.70;1.90;;;0.00;99.90;;;;;;2096428;28;20231;-69
2023/11/27 01:12:49;;;;;;;2.73;2.03;;;-0.10;99.90;;;;;;2095831;28;20227;-69
2023/11/27 01:13:49;;;;;;;3.00;2.10;;;0.00;99.90;;;;;;2093028;28;20236;-70
2023/11/27 01:14:51;;;;;;;3.00;2.33;;;-0.10;99.90;;;;;;2091386;28;20231;-71
2023/11/27 01:15:56;;;;;;;3.83;1.70;;;-0.10;99.90;;;;;;2087794;28;20347;-70
2023/11/27 01:16:57;;;;;;;4.15;2.10;;;-0.10;99.90;;;;;;2085511;28;20208;-70
2023/11/27 01:17:58;;;;;;;3.90;2.30;;;-0.10;99.90;;;;;;2087855;28;20196;-70
2023/11/27 01:18:58;;;;;;;2.87;2.07;;;0.00;99.90;;;;;;2091561;28;20646;-70
2023/11/27 01:19:59;;;;;;;2.60;1.83;;;-0.10;99.90;;;;;;2081927;28;20221;-70
2023/11/27 01:21:00;;;;;;;3.20;2.10;;;-0.10;99.90;;;;;;2084282;28;20176;-69
2023/11/27 01:22:00;;;;;;;2.63;1.77;;;-0.20;99.90;;;;;;2096167;28;20519;-70
2023/11/27 01:23:02;;;;;;;3.73;2.10;;;-0.10;99.90;;;;;;2084567;28;21065;-69
2023/11/27 01:24:05;;;;;;;3.30;2.47;;;-0.10;99.90;;;;;;2096461;28;20226;-69
2023/11/27 01:25:06;;;;;;;4.13;2.72;;;-0.10;99.90;;;;;;2093670;28;20229;-69
2023/11/27 01:26:07;;;;;;;3.25;2.30;;;-0.10;99.90;;;;;;2087057;28;20784;-69
2023/11/27 01:27:08;;;;;;;5.67;2.90;;;-0.10;99.90;;;;;;2089744;28;20179;-70
2023/11/27 01:28:09;;;;;;;3.33;2.08;;;-0.10;99.90;;;;;;2088523;28;20189;-70
2023/11/27 01:29:09;;;;;;;4.47;2.33;;;-0.10;99.90;;;;;;2087890;28;22018;-69
2023/11/27 01:30:11;;;;;;;4.37;2.23;;;-0.10;99.90;;;;;;2087534;28;20271;-69
2023/11/27 01:31:12;;;;;;;3.50;2.00;;;-0.20;99.90;;;;;;2091748;28;20328;-70
2023/11/27 01:32:13;;;;;;;3.95;2.22;;;-0.20;99.90;;;;;;2084750;28;20235;-70
2023/11/27 01:33:15;;;;;;;3.27;2.00;;;-0.20;99.90;;;;;;2074032;28;20232;-70
2023/11/27 01:34:16;;;;;;;2.75;2.05;;;-0.20;99.90;;;;;;2079738;28;20324;-69
2023/11/27 01:35:17;;;;;;;2.80;1.92;;;-0.20;99.90;;;;;;2087281;28;20293;-69
2023/11/27 01:36:18;;;;;;;4.73;2.57;;;-0.20;99.90;;;;;;2091342;28;20685;-69
2023/11/27 01:37:19;;;;;;;3.83;2.07;;;-0.10;99.90;;;;;;2083035;28;20610;-70
2023/11/27 01:38:20;;;;;;;2.88;2.33;;;-0.20;99.90;;;;;;2082268;28;20265;-69
2023/11/27 01:39:21;;;;;;;2.07;1.60;;;-0.20;99.90;;;;;;2078249;28;20232;-70
2023/11/27 01:40:22;;;;;;;2.20;1.90;;;-0.30;99.90;;;;;;2078966;28;20320;-69
2023/11/27 01:41:23;;;;;;;4.05;2.30;;;-0.30;99.90;;;;;;2079057;28;20226;-70
2023/11/27 01:42:23;;;;;;;3.40;1.60;;;-0.30;99.90;;;;;;2085780;28;20232;-70
2023/11/27 01:43:24;;;;;;;3.93;2.20;;;-0.30;99.90;;;;;;2089395;28;20293;-70
2023/11/27 01:44:25;;;;;;;2.70;2.07;;;-0.20;99.90;;;;;;2083320;28;20233;-70
2023/11/27 01:45:25;;;;;;;2.77;1.97;;;-0.10;99.90;;;;;;2081324;28;20235;-70
2023/11/27 01:46:27;;;;;;;3.83;2.10;;;-0.10;99.90;;;;;;2093217;28;20238;-71
2023/11/27 01:47:29;;;;;;;3.50;1.95;;;0.00;99.90;;;;;;2087407;28;20235;-70
2023/11/27 01:48:30;;;;;;;2.78;2.22;;;0.00;99.90;;;;;;2088137;28;20232;-70
2023/11/27 01:49:32;;;;;;;1.70;1.50;;;0.00;99.90;;;;;;2090830;28;20237;-70
2023/11/27 01:50:33;;;;;;;2.97;2.08;;;-0.10;99.90;;;;;;2077222;28;20735;-70
2023/11/27 01:51:34;;;;;;;3.00;1.83;;;0.00;99.90;;;;;;2080140;28;20650;-70
2023/11/27 01:52:38;;;;;;;2.63;1.80;;;0.00;99.90;;;;;;2087448;28;20232;-70
2023/11/27 01:53:39;;;;;;;3.10;2.00;;;-0.10;99.90;;;;;;2088270;28;20402;-70
2023/11/27 01:54:40;;;;;;;2.00;1.67;;;-0.10;99.90;;;;;;2074846;28;20237;-70
2023/11/27 01:55:41;;;;;;;3.55;2.00;;;-0.10;99.90;;;;;;2071908;28;20233;-70
2023/11/27 01:56:47;;;;;;;3.33;1.73;;;-0.10;99.90;;;;;;2094034;28;20251;-70
2023/11/27 01:57:48;;;;;;;2.63;1.92;;;-0.10;99.90;;;;;;2083836;28;20232;-70
2023/11/27 01:58:51;;;;;;;2.43;2.10;;;0.00;99.90;;;;;;2084950;28;20228;-70
2023/11/27 01:59:55;;;;;;;2.70;1.73;;;0.00;99.90;;;;;;2086467;28;20231;-70
2023/11/27 02:00:56;;;;;;;2.75;1.88;;;0.00;99.90;;;;;;2080419;28;20327;-70
2023/11/27 02:01:57;;;;;;;2.73;1.90;;;0.00;99.90;;;;;;2080192;28;20721;-70
2023/11/27 02:02:59;;;;;;;3.03;1.70;;;0.00;99.90;;;;;;2087444;28;20188;-70
2023/11/27 02:04:02;;;;;;;3.25;1.50;;;0.00;99.90;;;;;;2085348;28;20185;-70
2023/11/27 02:05:04;;;;;;;4.85;2.08;;;-0.10;99.90;;;;;;2080021;28;20181;-70
2023/11/27 02:06:05;;;;;;;3.97;1.77;;;-0.10;99.90;;;;;;2086425;28;20196;-70
2023/11/27 02:07:06;;;;;;;2.73;1.40;;;-0.10;99.90;;;;;;2085558;28;20632;-70
2023/11/27 02:08:07;;;;;;;1.98;1.50;;;-0.10;99.90;;;;;;2085917;28;20200;-70
2023/11/27 02:09:08;;;;;;;3.40;1.70;;;0.00;99.90;;;;;;2086573;28;20212;-70
2023/11/27 02:10:10;;;;;;;2.87;1.90;;;-0.10;99.90;;;;;;2084328;28;20196;-70
2023/11/27 02:11:10;;;;;;;1.63;1.40;;;-0.10;99.90;;;;;;2086730;28;20738;-70
2023/11/27 02:12:11;;;;;;;2.50;1.60;;;-0.10;99.90;;;;;;2090730;28;20235;-70
2023/11/27 02:13:13;;;;;;;2.70;1.50;;;0.00;99.90;;;;;;2090236;28;20290;-70
2023/11/27 02:14:15;;;;;;;2.00;1.80;;;0.00;99.90;;;;;;2083398;28;20714;-71
2023/11/27 02:15:16;;;;;;;2.78;1.85;;;0.00;99.90;;;;;;2097997;28;20226;-70
2023/11/27 02:16:17;;;;;;;4.17;2.10;;;0.00;99.90;;;;;;2082263;28;20710;-70
2023/11/27 02:17:18;;;;;;;2.35;1.60;;;0.00;99.90;;;;;;2086709;28;20722;-70
2023/11/27 02:18:20;;;;;;;3.87;1.77;;;0.00;99.90;;;;;;2076380;28;20241;-70
2023/11/27 02:19:20;;;;;;;2.08;1.52;;;0.00;99.90;;;;;;2076203;28;20881;-70
2023/11/27 02:20:21;;;;;;;3.03;1.70;;;0.00;99.90;;;;;;2086588;28;20389;-69
2023/11/27 02:21:22;;;;;;;2.40;1.60;;;0.10;99.90;;;;;;2091738;28;20239;-70
2023/11/27 02:22:24;;;;;;;2.47;1.90;;;0.00;99.90;;;;;;2081452;28;20244;-70
2023/11/27 02:23:24;;;;;;;2.45;1.48;;;-0.10;99.90;;;;;;2078355;28;20225;-70
2023/11/27 02:24:25;;;;;;;2.80;1.60;;;-0.10;99.90;;;;;;2083398;28;20318;-70
2023/11/27 02:25:26;;;;;;;2.57;1.50;;;-0.20;99.90;;;;;;2078739;28;20275;-70
2023/11/27 02:26:27;;;;;;;2.70;1.60;;;-0.20;99.90;;;;;;2080696;28;20772;-70
2023/11/27 02:27:28;;;;;;;1.63;1.43;;;-0.10;99.90;;;;;;2086494;28;20425;-70
2023/11/27 02:28:28;;;;;;;2.60;1.67;;;-0.20;99.90;;;;;;2086464;28;20236;-70
2023/11/27 02:29:29;;;;;;;2.27;1.67;;;-0.10;99.90;;;;;;2081439;28;20241;-70
2023/11/27 02:30:30;;;;;;;2.07;1.63;;;-0.20;99.90;;;;;;2083564;28;20238;-70
2023/11/27 02:31:31;;;;;;;2.47;1.70;;;-0.20;99.90;;;;;;2084196;28;20232;-70
2023/11/27 02:32:32;;;;;;;2.53;1.75;;;-0.20;99.90;;;;;;2084987;28;20738;-70
2023/11/27 02:33:33;;;;;;;2.47;1.55;;;-0.20;99.90;;;;;;2083733;28;20234;-70
2023/11/27 02:34:34;;;;;;;4.22;1.85;;;-0.20;99.90;;;;;;2085712;28;20266;-70
2023/11/27 02:35:35;;;;;;;1.47;1.10;;;-0.10;99.90;;;;;;2082920;28;20223;-70
2023/11/27 02:36:40;;;;;;;2.13;1.20;;;0.00;99.90;;;;;;2088118;28;20235;-70
2023/11/27 02:37:40;;;;;;;2.05;1.33;;;0.00;99.90;;;;;;2078065;28;20225;-70
2023/11/27 02:38:41;;;;;;;2.60;1.40;;;0.10;99.90;;;;;;2070724;28;20258;-70
2023/11/27 02:39:42;;;;;;;2.47;1.83;;;0.10;99.90;;;;;;2076900;28;20745;-70
2023/11/27 02:40:43;;;;;;;1.30;1.20;;;0.20;99.90;;;;;;2086819;28;20240;-70
2023/11/27 02:41:43;;;;;;;3.77;1.50;;;0.20;99.90;;;;;;2087619;28;20523;-70
2023/11/27 02:42:44;;;;;;;3.33;1.40;;;0.20;99.90;;;;;;2080109;28;20236;-71
2023/11/27 02:43:45;;;;;;;3.93;1.73;;;0.20;99.90;;;;;;2080868;28;20307;-70
2023/11/27 02:44:46;;;;;;;3.20;1.38;;;0.30;99.90;;;;;;2082538;28;20294;-70
2023/11/27 02:45:46;;;;;;;1.37;1.20;;;0.30;99.90;;;;;;2079413;28;20773;-70
2023/11/27 02:46:47;;;;;;;1.97;1.43;;;0.30;99.90;;;;;;2079617;28;20260;-70
2023/11/27 02:47:48;;;;;;;1.80;1.30;;;0.30;99.90;;;;;;2095159;28;20219;-70
2023/11/27 02:48:48;;;;;;;2.00;1.27;;;0.30;99.90;;;;;;2082864;28;20257;-70
2023/11/27 02:49:49;;;;;;;2.07;1.30;;;0.30;99.90;;;;;;2082174;28;20271;-71
2023/11/27 02:50:50;;;;;;;1.33;1.20;;;0.40;99.90;;;;;;2087566;28;20320;-70
2023/11/27 02:51:50;;;;;;;2.30;1.40;;;0.40;99.90;;;;;;2090198;28;20270;-72
2023/11/27 02:52:51;;;;;;;2.33;1.40;;;0.40;99.90;;;;;;2075352;28;20184;-71
2023/11/27 02:53:52;;;;;;;1.47;1.03;;;0.50;99.90;;;;;;2086660;28;20295;-70
2023/11/27 02:54:54;;;;;;;2.23;1.00;;;0.50;99.90;;;;;;2094621;28;20246;-71
2023/11/27 02:55:55;;;;;;;2.45;1.20;;;0.50;99.90;;;;;;2084222;28;20751;-70
2023/11/27 02:56:55;;;;;;;2.70;1.63;;;0.50;99.90;;;;;;2090616;28;20206;-70
2023/11/27 02:57:56;;;;;;;1.53;1.17;;;0.40;99.90;;;;;;2087248;28;20677;-70
2023/11/27 02:58:57;;;;;;;2.43;1.23;;;0.50;99.90;;;;;;2091095;28;20173;-70
2023/11/27 02:59:58;;;;;;;1.70;1.20;;;0.50;99.90;;;;;;2099053;28;20179;-70
2023/11/27 03:00:59;;;;;;;1.40;1.00;;;0.50;99.90;;;;;;2090810;28;20184;-70
2023/11/27 03:01:59;;;;;;;2.90;1.30;;;0.50;99.90;;;;;;2079026;28;20181;-69
2023/11/27 03:03:01;;;;;;;2.73;1.20;;;0.40;99.90;;;;;;2085172;28;20425;-70
2023/11/27 03:04:02;;;;;;;1.20;1.10;;;0.50;99.90;;;;;;2088063;28;20183;-70
2023/11/27 03:05:03;;;;;;;1.53;1.13;;;0.50;99.90;;;;;;2076494;28;20178;-70
2023/11/27 03:06:04;;;;;;;1.57;1.30;;;0.50;99.90;;;;;;2080852;28;20272;-70
2023/11/27 03:07:05;;;;;;;1.30;1.10;;;0.60;99.90;;;;;;2085621;28;20271;-70
2023/11/27 03:08:06;;;;;;;2.60;1.20;;;0.60;99.90;;;;;;2084079;28;20187;-70
2023/11/27 03:09:10;;;;;;;3.80;1.30;;;0.70;99.90;;;;;;2077670;28;20871;-69
2023/11/27 03:10:13;;;;;;;4.82;1.60;;;0.70;99.90;;;;;;2073122;28;20234;-70
2023/11/27 03:11:14;;;;;;;2.05;1.45;;;0.70;99.90;;;;;;2069565;28;20903;-68
2023/11/27 03:12:15;;;;;;;1.95;1.67;;;0.70;99.90;;;;;;2085576;28;20237;-70
2023/11/27 03:13:16;;;;;;;1.70;1.23;;;0.70;99.90;;;;;;2086934;28;20310;-69
2023/11/27 03:14:17;;;;;;;3.30;1.60;;;0.70;99.90;;;;;;2085298;28;20541;-69
2023/11/27 03:15:18;;;;;;;1.88;1.38;;;0.60;99.90;;;;;;2082164;28;20216;-69
2023/11/27 03:16:19;;;;;;;2.00;1.35;;;0.70;99.90;;;;;;2082535;28;20342;-70
2023/11/27 03:17:21;;;;;;;5.60;2.17;;;0.50;99.90;;;;;;2086299;28;20231;-69
2023/11/27 03:18:21;;;;;;;2.10;1.33;;;0.50;99.90;;;;;;2084596;28;20233;-69
2023/11/27 03:19:22;;;;;;;3.17;1.67;;;0.40;99.90;;;;;;2075890;28;20649;-69
2023/11/27 03:20:23;;;;;;;1.63;1.40;;;0.40;99.90;;;;;;2077591;28;20224;-69
2023/11/27 03:21:23;;;;;;;2.70;1.70;;;0.40;99.90;;;;;;2086427;28;20225;-69
2023/11/27 03:22:24;;;;;;;2.00;1.40;;;0.40;99.90;;;;;;2081124;28;20225;-69
2023/11/27 03:23:25;;;;;;;1.97;1.40;;;0.30;99.90;;;;;;2075343;28;20216;-69
2023/11/27 03:24:26;;;;;;;1.57;1.20;;;0.30;99.90;;;;;;2085820;28;20221;-69
2023/11/27 03:25:27;;;;;;;2.17;1.30;;;0.20;99.90;;;;;;2090429;28;20690;-69
2023/11/27 03:26:27;;;;;;;3.93;1.60;;;0.10;99.90;;;;;;2086593;28;20306;-70
2023/11/27 03:27:28;;;;;;;2.77;1.80;;;0.10;99.90;;;;;;2083039;28;20226;-69
2023/11/27 03:28:29;;;;;;;2.70;1.50;;;0.00;99.90;;;;;;2083643;28;20758;-72
2023/11/27 03:29:30;;;;;;;2.33;1.60;;;-0.10;99.90;;;;;;2083728;28;20239;-69
2023/11/27 03:30:31;;;;;;;1.90;1.48;;;-0.10;99.90;;;;;;2080773;28;20238;-70
2023/11/27 03:31:32;;;;;;;2.90;1.60;;;-0.10;99.90;;;;;;2082676;28;20595;-69
2023/11/27 03:32:32;;;;;;;2.00;1.40;;;-0.10;99.90;;;;;;2074804;28;20729;-70
2023/11/27 03:33:33;;;;;;;1.80;1.10;;;-0.10;99.90;;;;;;2084320;28;20881;-70
2023/11/27 03:34:34;;;;;;;1.50;1.40;;;-0.10;99.90;;;;;;2084844;28;20244;-72
2023/11/27 03:35:35;;;;;;;1.60;1.50;;;0.00;99.90;;;;;;2079078;28;20607;-69
2023/11/27 03:36:35;;;;;;;1.70;1.23;;;-0.10;99.90;;;;;;2069033;28;20630;-69
2023/11/27 03:37:36;;;;;;;1.57;1.47;;;0.00;99.90;;;;;;2069745;28;20224;-69
2023/11/27 03:38:37;;;;;;;1.70;1.20;;;-0.20;99.90;;;;;;2076946;28;20238;-70
2023/11/27 03:39:37;;;;;;;2.63;1.80;;;-0.30;99.90;;;;;;2083206;28;20259;-70
2023/11/27 03:40:38;;;;;;;4.93;1.90;;;-0.40;99.90;;;;;;2082930;28;20235;-70
2023/11/27 03:41:39;;;;;;;1.83;1.60;;;-0.50;99.90;;;;;;2082974;28;20278;-70
2023/11/27 03:42:40;;;;;;;2.30;1.50;;;-0.50;99.90;;;;;;2081377;28;20306;-70
2023/11/27 03:43:41;;;;;;;4.30;1.50;;;-0.50;99.90;;;;;;2076457;28;20278;-69
2023/11/27 03:44:42;;;;;;;2.30;1.27;;;-0.40;99.90;;;;;;2082988;28;20227;-69
2023/11/27 03:45:42;;;;;;;2.40;1.57;;;-0.50;99.90;;;;;;2092792;28;20227;-69
2023/11/27 03:46:43;;;;;;;1.90;1.53;;;-0.40;99.90;;;;;;2099218;28;20227;-70
2023/11/27 03:47:44;;;;;;;6.07;2.90;;;-0.50;99.90;;;;;;2092121;28;20223;-69
2023/11/27 03:48:45;;;;;;;1.60;1.30;;;-0.50;99.90;;;;;;2094685;28;20310;-69
2023/11/27 03:49:45;;;;;;;3.83;1.50;;;-0.50;99.90;;;;;;2091112;28;20223;-70
2023/11/27 03:50:46;;;;;;;1.97;1.70;;;-0.60;99.90;;;;;;2092028;28;20746;-70
2023/11/27 03:51:47;;;;;;;2.87;1.60;;;-0.60;99.90;;;;;;2091999;28;20250;-69
2023/11/27 03:52:47;;;;;;;2.50;2.30;;;-0.60;99.90;;;;;;2091650;28;20247;-70
2023/11/27 03:53:48;;;;;;;4.17;2.50;;;-0.60;99.90;;;;;;2090685;28;20231;-70
2023/11/27 03:54:49;;;;;;;7.90;3.63;;;-0.50;99.90;;;;;;2086067;28;20231;-69
2023/11/27 03:55:49;;;;;;;3.30;2.67;;;-0.50;99.90;;;;;;2084598;28;20274;-70
2023/11/27 03:56:50;;;;;;;3.37;3.03;;;-0.50;99.90;;;;;;2090776;28;20429;-70
2023/11/27 03:57:51;;;;;;;3.57;2.90;;;-0.40;99.90;;;;;;2090969;28;20176;-72
2023/11/27 03:58:52;;;;;;;4.85;3.53;;;-0.40;99.90;;;;;;2094810;28;20183;-70
2023/11/27 03:59:53;;;;;;;4.23;2.90;;;-0.50;99.90;;;;;;2086851;28;20180;-70
2023/11/27 04:00:53;;;;;;;4.23;2.93;;;-0.50;99.90;;;;;;2091074;28;20245;-70
2023/11/27 04:01:54;;;;;;;4.40;3.13;;;-0.50;99.90;;;;;;2099747;28;20649;-70
2023/11/27 04:02:55;;;;;;;2.87;2.10;;;-0.50;99.90;;;;;;2099172;28;20175;-70
2023/11/27 04:03:55;;;;;;;3.60;2.90;;;-0.50;99.90;;;;;;2091413;28;20191;-70
2023/11/27 04:04:56;;;;;;;3.33;2.40;;;-0.50;99.90;;;;;;2094938;28;20229;-70
2023/11/27 04:05:57;;;;;;;3.90;2.87;;;-0.60;99.90;;;;;;2091717;28;20183;-70
2023/11/27 04:06:58;;;;;;;3.83;2.90;;;-0.60;99.90;;;;;;2091480;28;20175;-70
2023/11/27 04:07:58;;;;;;;5.27;3.63;;;-0.70;99.90;;;;;;2093046;28;20245;-70
2023/11/27 04:08:59;;;;;;;6.30;3.20;;;-0.70;99.90;;;;;;2084394;28;20184;-69
2023/11/27 04:10:00;;;;;;;5.70;3.13;;;-0.70;99.90;;;;;;2083901;28;20181;-70
2023/11/27 04:11:01;;;;;;;3.57;2.97;;;-0.80;99.90;;;;;;2077963;28;20572;-70
2023/11/27 04:12:05;;;;;;;5.18;2.90;;;-0.70;99.90;;;;;;2079267;28;20239;-70
2023/11/27 04:13:06;;;;;;;2.97;2.55;;;-0.70;99.90;;;;;;2074934;28;20188;-69
2023/11/27 04:14:07;;;;;;;2.08;1.67;;;-0.70;99.90;;;;;;2074840;28;20205;-69
2023/11/27 04:15:08;;;;;;;2.20;1.70;;;-0.70;99.90;;;;;;2087295;28;20682;-70
2023/11/27 04:16:09;;;;;;;2.10;1.30;;;-0.80;99.90;;;;;;2076582;28;20231;-70
2023/11/27 04:17:11;;;;;;;3.65;1.60;;;-0.80;99.90;;;;;;2077694;28;31665;-70
2023/11/27 04:18:11;;;;;;;3.28;1.98;;;-0.70;99.90;;;;;;2086804;28;20266;-70
2023/11/27 04:19:12;;;;;;;1.90;1.70;;;-0.80;99.90;;;;;;2092096;28;20265;-70
2023/11/27 04:20:16;;;;;;;2.10;1.50;;;-0.80;99.90;;;;;;2090820;28;20239;-70
2023/11/27 04:21:18;;;;;;;2.67;2.15;;;-0.90;99.90;;;;;;2094570;28;20219;-70
2023/11/27 04:22:19;;;;;;;3.83;1.70;;;-0.80;99.90;;;;;;2086544;28;20302;-70
2023/11/27 04:23:20;;;;;;;2.00;1.70;;;-0.80;99.90;;;;;;2086285;28;20228;-69
2023/11/27 04:24:20;;;;;;;1.20;1.07;;;-0.70;99.90;;;;;;2074411;28;20590;-70
2023/11/27 04:25:21;;;;;;;1.10;1.00;;;-0.80;99.90;;;;;;2069613;28;20221;-70
2023/11/27 04:26:22;;;;;;;1.70;1.30;;;-0.80;99.90;;;;;;2085297;28;20227;-70
2023/11/27 04:27:23;;;;;;;1.47;1.17;;;-0.80;99.90;;;;;;2089118;28;20630;-70
2023/11/27 04:28:25;;;;;;;1.17;1.00;;;-0.80;99.90;;;;;;2078488;28;20225;-70
2023/11/27 04:29:26;;;;;;;1.38;1.20;;;-0.80;99.90;;;;;;2074990;28;20219;-70
2023/11/27 04:30:27;;;;;;;1.65;1.30;;;-0.80;99.90;;;;;;2087466;28;20279;-70
2023/11/27 04:31:28;;;;;;;1.77;1.57;;;-0.90;99.90;;;;;;2086357;28;20717;-70
2023/11/27 04:32:29;;;;;;;1.40;1.27;;;-0.90;99.90;;;;;;2083560;28;20237;-70
2023/11/27 04:33:29;;;;;;;3.40;1.33;;;-0.90;99.90;;;;;;2087358;28;20224;-69
2023/11/27 04:34:30;;;;;;;2.70;1.10;;;-0.80;99.90;;;;;;2080132;28;20251;-70
2023/11/27 04:35:31;;;;;;;1.53;1.17;;;-0.80;99.90;;;;;;2083761;28;20334;-70
2023/11/27 04:36:32;;;;;;;1.90;1.20;;;-0.80;99.90;;;;;;2091719;28;20334;-69
2023/11/27 04:37:33;;;;;;;1.30;1.17;;;-0.80;99.90;;;;;;2084617;28;20231;-70
2023/11/27 04:38:33;;;;;;;2.17;1.97;;;-0.80;99.90;;;;;;2078130;28;20348;-70
2023/11/27 04:39:34;;;;;;;1.87;1.20;;;-0.80;99.90;;;;;;2069453;28;20229;-70
2023/11/27 04:40:35;;;;;;;1.67;1.30;;;-0.90;99.90;;;;;;2069025;28;20232;-70
2023/11/27 04:41:35;;;;;;;6.13;1.67;;;-0.90;99.90;;;;;;2074991;28;20226;-70
2023/11/27 04:42:39;;;;;;;1.83;1.30;;;-0.90;99.90;;;;;;2084965;28;20299;-70
2023/11/27 04:43:40;;;;;;;2.08;1.02;;;-0.90;99.90;;;;;;2086727;28;20709;-70
2023/11/27 04:44:41;;;;;;;2.73;1.27;;;-0.90;99.90;;;;;;2093700;28;20229;-70
2023/11/27 04:45:42;;;;;;;1.90;1.50;;;-0.80;99.90;;;;;;2084832;28;20224;-70
2023/11/27 04:46:42;;;;;;;1.97;1.30;;;-0.70;99.90;;;;;;2080973;28;20603;-70
2023/11/27 04:47:43;;;;;;;1.43;1.33;;;-0.70;99.90;;;;;;2079257;28;20231;-70
2023/11/27 04:48:44;;;;;;;2.73;1.17;;;-0.70;99.90;;;;;;2076393;28;20308;-71
2023/11/27 04:49:45;;;;;;;1.50;1.27;;;-0.60;99.90;;;;;;2074523;28;20262;-70
2023/11/27 04:50:46;;;;;;;1.33;1.23;;;-0.60;99.90;;;;;;2085306;28;20285;-70
2023/11/27 04:51:48;;;;;;;3.10;1.30;;;-0.50;99.90;;;;;;2085654;28;20220;-70
2023/11/27 04:52:48;;;;;;;4.40;1.85;;;-0.40;99.90;;;;;;2085581;28;20248;-70
2023/11/27 04:53:49;;;;;;;2.13;1.70;;;-0.40;99.90;;;;;;2085120;28;20239;-70
2023/11/27 04:54:50;;;;;;;2.40;1.70;;;-0.40;99.90;;;;;;2092052;28;20231;-70
2023/11/27 04:55:50;;;;;;;3.87;2.23;;;-0.40;99.90;;;;;;2091383;28;20216;-70
2023/11/27 04:56:51;;;;;;;1.70;1.30;;;-0.50;99.90;;;;;;2082817;28;20322;-71
2023/11/27 04:57:52;;;;;;;2.33;1.47;;;-0.50;99.90;;;;;;2078393;28;20659;-70
2023/11/27 04:58:52;;;;;;;1.90;1.50;;;-0.50;99.90;;;;;;2077856;28;20209;-73
2023/11/27 04:59:53;;;;;;;1.93;1.73;;;-0.50;99.90;;;;;;2087120;28;20172;-71
2023/11/27 05:00:54;;;;;;;2.57;1.37;;;-0.60;99.90;;;;;;2088312;28;20224;-70
2023/11/27 05:01:55;;;;;;;4.47;1.90;;;-0.60;99.90;;;;;;2095050;28;20203;-71
2023/11/27 05:02:56;;;;;;;1.77;1.30;;;-0.60;99.90;;;;;;2098718;28;20185;-70
2023/11/27 05:03:57;;;;;;;4.33;2.13;;;-0.60;99.90;;;;;;2089792;28;20176;-70
2023/11/27 05:04:58;;;;;;;3.20;2.00;;;-0.50;99.90;;;;;;2090948;28;20188;-70
2023/11/27 05:05:58;;;;;;;2.60;1.90;;;-0.40;99.90;;;;;;2093682;28;20686;-70
2023/11/27 05:07:00;;;;;;;4.73;3.00;;;-0.40;99.90;;;;;;2092344;28;20266;-71
2023/11/27 05:08:01;;;;;;;4.90;3.78;;;-0.30;99.90;;;;;;2099907;28;20183;-70
2023/11/27 05:09:02;;;;;;;4.40;3.27;;;-0.20;99.90;;;;;;2085976;28;20243;-70
2023/11/27 05:10:04;;;;;;;3.60;3.03;;;-0.20;99.90;;;;;;2079334;28;20240;-70
2023/11/27 05:11:04;;;;;;;3.30;2.50;;;-0.30;99.90;;;;;;2094157;28;20217;-70
2023/11/27 05:12:06;;;;;;;2.53;1.90;;;-0.20;99.90;;;;;;2084669;28;20259;-70
2023/11/27 05:13:07;;;;;;;3.45;2.55;;;-0.20;99.90;;;;;;2077594;28;20236;-70
2023/11/27 05:14:07;;;;;;;2.53;2.20;;;-0.10;99.90;;;;;;2079197;28;20177;-70
2023/11/27 05:15:09;;;;;;;4.73;2.27;;;-0.10;99.90;;;;;;2092045;28;20693;-70
2023/11/27 05:16:10;;;;;;;6.28;1.98;;;0.00;99.90;;;;;;2093128;28;20215;-70
2023/11/27 05:17:10;;;;;;;2.50;2.20;;;0.00;99.90;;;;;;2082124;28;20232;-70
2023/11/27 05:18:12;;;;;;;4.30;2.30;;;0.00;99.90;;;;;;2089227;28;20686;-70
2023/11/27 05:19:13;;;;;;;3.13;1.80;;;0.00;99.90;;;;;;2088081;28;20239;-70